Aérodrome :
LOGIN :

S'inscrire | Disclaimer

   EN    FR    IT 

 










Légende :    VFR   VFR Marginal   IFR   IFR Intensif   IFR Très Intensif
Visi : 
Plafond : 
>= 8 km
>= 3000ft
5 à 8 km
1000 à 3000 ft
1500m à 5 km
500 à 1000 ft
800 à 1500m
200 à 500 ft
< 800m
< 200 ft
Symboles :   Orages  Brouillard  Fortes neiges  Fortes précipitations  Vent > 20 kt
SIGMETs :   Divers  Orages  Givrage  Turbulence  Onde Orograph.  Cendres Volcan.






- Altitude de l'aérodrome : 646 ft
- Code IATA : VNO


EYVI - Vilnius int.

DERNIER METAR :
  • 211950Z 27012KT 9999 OVC005 05/04 Q1019 R19/2///95 NOSIG

METARs EXPIRÉS :
  • 211920Z 28014KT 250V310 9999 OVC005 05/04 Q1019 R19/2///95 NOSIG
  • 211850Z 27013KT 240V300 9999 BKN004 05/04 Q1019 R19/2///95 NOSIG
  • 211820Z 27014KT 230V300 9999 -RA OVC003 04/04 Q1020 R19/2///95 NOSIG
  • 211750Z 28013KT 6000 -RA OVC003 04/04 Q1020 R19/2///95 TEMPO 3000 RA BR
  • 211720Z 27014KT 4300 -RA BR OVC003 04/04 Q1020 R19/2///95 TEMPO 3000 RA BR

TAF TAF EYVI
Valide du 21 à 18h jusqu'au 22 à 18h UTC


211708Z 2118/2218 27014KT 5000 BR OVC005
TEMPO 2118/2124 0800 DZ FG OVC002
BECMG 2200/2201 RA OVC010
TEMPO 2201/2209 3000 OVC005
BECMG 2209/2211 33016KT 8000 BKN020
TEMPO 2211/2218 1500 SHSNRA BKN005 BKN015CB



MET'MAP, la Météo Aéronautique d'un coup d'oeil ! - Copyright ORBIFLY Décembre 2007 - Disclaimer

ORBIFLY MET'MAP TEAM :

Programmation & Développement : Alexandra Zaïnal
Sur une idée originale de : Baudouin d'Aumeries
Assistance à la programmation : Marc-Olivier Méhu
Soutien technique & logistique : Manuel Goepfert

Contact : metmap@orbifly.com




SOURCES & CREDITS :

   NOAA